createdAt,value
2022-08-25T00:00:13.535Z,25.09
2022-08-25T00:02:54.995Z,25.03
2022-08-25T00:05:32.143Z,24.92
2022-08-25T00:08:02.286Z,24.95
2022-08-25T00:10:30.974Z,24.89
2022-08-25T00:12:59.481Z,24.91
2022-08-25T00:15:28.621Z,24.86
2022-08-25T00:17:56.478Z,24.85
2022-08-25T00:20:25.605Z,24.81
2022-08-25T00:22:53.515Z,24.74
2022-08-25T00:25:21.990Z,24.78
2022-08-25T00:27:52.776Z,24.75
2022-08-25T00:30:20.643Z,24.80
2022-08-25T00:32:52.551Z,24.76
2022-08-25T00:35:26.518Z,24.83
2022-08-25T00:37:54.480Z,24.92
2022-08-25T00:40:25.519Z,24.88
2022-08-25T00:42:54.591Z,24.92
2022-08-25T00:45:23.671Z,24.86
2022-08-25T00:47:53.167Z,24.78
2022-08-25T00:50:22.832Z,24.77
2022-08-25T00:52:59.154Z,24.70
2022-08-25T00:55:34.501Z,24.77
2022-08-25T00:58:14.208Z,24.70
2022-08-25T01:00:46.825Z,24.57
2022-08-25T01:03:14.969Z,24.73
2022-08-25T01:05:43.804Z,24.51
2022-08-25T01:08:13.324Z,24.51
2022-08-25T01:10:45.333Z,24.59
2022-08-25T01:13:31.435Z,24.54
2022-08-25T01:15:59.990Z,24.64
2022-08-25T01:18:29.144Z,24.57
2022-08-25T01:21:00.325Z,24.53
2022-08-25T01:23:28.143Z,24.59
2022-08-25T01:26:13.805Z,24.52
2022-08-25T01:29:03.695Z,24.52
2022-08-25T01:31:32.047Z,24.38
2022-08-25T01:34:00.852Z,24.47
2022-08-25T01:36:30.430Z,24.58
2022-08-25T01:38:58.677Z,24.53
2022-08-25T01:41:41.484Z,24.51
2022-08-25T01:44:09.318Z,24.59
2022-08-25T01:46:42.094Z,24.61
2022-08-25T01:49:10.761Z,24.59
2022-08-25T01:51:44.802Z,24.49
2022-08-25T01:54:12.484Z,24.37
2022-08-25T01:56:40.202Z,24.44
2022-08-25T01:59:08.008Z,24.40
2022-08-25T02:01:35.922Z,24.42
2022-08-25T02:04:04.365Z,24.41
2022-08-25T02:06:33.902Z,24.45
2022-08-25T02:09:11.332Z,24.42
2022-08-25T02:11:42.289Z,24.36
2022-08-25T02:14:12.260Z,24.52
2022-08-25T02:16:44.887Z,24.48
2022-08-25T02:19:12.949Z,24.49
2022-08-25T02:21:40.791Z,24.53
2022-08-25T02:24:09.335Z,24.58
2022-08-25T02:26:37.141Z,24.59
2022-08-25T02:29:07.557Z,24.56
2022-08-25T02:31:36.366Z,24.52
2022-08-25T02:34:04.567Z,24.50
2022-08-25T02:36:32.565Z,24.53
2022-08-25T02:39:01.047Z,24.40
2022-08-25T02:41:31.229Z,24.45
2022-08-25T02:44:05.006Z,24.46
2022-08-25T02:46:32.981Z,24.49
2022-08-25T02:49:00.963Z,24.51
2022-08-25T02:51:30.411Z,24.48
2022-08-25T02:54:00.293Z,24.45
2022-08-25T02:56:31.208Z,24.35
2022-08-25T02:59:00.558Z,24.17
2022-08-25T03:01:29.884Z,24.25
2022-08-25T03:03:58.225Z,24.30
2022-08-25T03:06:28.101Z,24.40
2022-08-25T03:08:56.405Z,24.28
2022-08-25T03:11:26.734Z,24.17
2022-08-25T03:13:54.834Z,24.20
2022-08-25T03:16:23.777Z,24.22
2022-08-25T03:18:56.675Z,24.22
2022-08-25T03:21:26.554Z,24.28
2022-08-25T03:23:54.400Z,24.12
2022-08-25T03:26:41.428Z,24.15
2022-08-25T03:29:10.579Z,24.21
2022-08-25T03:31:39.106Z,24.21
2022-08-25T03:34:07.186Z,24.25
2022-08-25T03:36:36.267Z,24.21
2022-08-25T03:39:04.643Z,24.25
2022-08-25T03:41:34.226Z,24.25
2022-08-25T03:44:05.703Z,24.27
2022-08-25T03:46:53.882Z,24.12
2022-08-25T03:49:24.053Z,24.24
2022-08-25T03:51:54.107Z,24.23
2022-08-25T03:54:25.611Z,24.35
2022-08-25T03:56:53.691Z,24.41
2022-08-25T03:59:21.951Z,24.35
2022-08-25T04:01:54.829Z,24.34
2022-08-25T04:04:23.567Z,24.18
2022-08-25T04:06:51.489Z,24.14
2022-08-25T04:09:19.986Z,24.11
2022-08-25T04:11:51.945Z,24.08
2022-08-25T04:14:21.962Z,24.05
2022-08-25T04:17:01.748Z,24.07
2022-08-25T04:19:29.669Z,24.04
2022-08-25T04:21:57.603Z,23.83
2022-08-25T04:24:25.581Z,23.87
2022-08-25T04:26:54.210Z,24.09
2022-08-25T04:29:24.381Z,24.41
2022-08-25T04:31:54.562Z,24.91
2022-08-25T04:34:29.392Z,25.14
2022-08-25T04:37:01.525Z,25.34
2022-08-25T04:39:29.697Z,25.33
2022-08-25T04:41:58.082Z,25.55
2022-08-25T04:44:25.955Z,25.43
2022-08-25T04:46:54.164Z,25.62
2022-08-25T04:49:22.127Z,25.40
2022-08-25T04:51:50.031Z,25.26
2022-08-25T04:54:21.861Z,25.23
2022-08-25T04:56:54.661Z,25.15
2022-08-25T04:59:30.028Z,25.34
2022-08-25T05:02:03.213Z,25.22
2022-08-25T05:04:32.831Z,25.42
2022-08-25T05:07:01.436Z,25.47
2022-08-25T05:09:32.392Z,25.53
2022-08-25T05:12:02.912Z,25.61
2022-08-25T05:14:32.582Z,25.90
2022-08-25T05:17:00.577Z,25.90
2022-08-25T05:19:28.612Z,25.95
2022-08-25T05:21:58.031Z,25.86
2022-08-25T05:25:25.305Z,25.99
2022-08-25T05:28:12.287Z,26.05
2022-08-25T05:30:42.100Z,26.33
2022-08-25T05:33:11.525Z,26.26
2022-08-25T05:35:40.043Z,26.26
2022-08-25T05:38:08.054Z,26.39
2022-08-25T05:40:43.513Z,26.23
2022-08-25T05:43:12.574Z,26.43
2022-08-25T05:45:41.353Z,26.56
2022-08-25T05:48:09.266Z,27.02
2022-08-25T05:50:37.183Z,26.81
2022-08-25T05:53:05.664Z,26.76
2022-08-25T05:55:33.542Z,27.06
2022-08-25T05:58:01.449Z,27.15
2022-08-25T06:00:29.560Z,27.37
2022-08-25T06:02:57.875Z,26.87
2022-08-25T06:05:25.880Z,26.83
2022-08-25T06:07:53.827Z,26.63
2022-08-25T06:10:22.248Z,26.44
2022-08-25T06:12:50.367Z,26.50
2022-08-25T06:15:21.434Z,26.87
2022-08-25T06:17:50.708Z,27.15
2022-08-25T06:20:25.868Z,27.25
2022-08-25T06:22:54.473Z,27.25
2022-08-25T06:25:24.863Z,27.24
2022-08-25T06:27:54.581Z,27.01
2022-08-25T06:30:28.830Z,27.04
2022-08-25T06:32:57.206Z,27.15
2022-08-25T06:39:29.534Z,27.34
2022-08-25T06:41:58.028Z,27.61
2022-08-25T06:44:27.937Z,27.61
2022-08-25T06:46:56.061Z,27.60
2022-08-25T06:49:29.293Z,27.52
2022-08-25T06:51:59.073Z,27.61
2022-08-25T06:54:27.003Z,27.67
2022-08-25T06:56:54.983Z,27.81
2022-08-25T06:59:23.102Z,27.68
2022-08-25T07:01:51.220Z,27.70
2022-08-25T07:04:21.297Z,27.89
2022-08-25T07:06:49.210Z,27.77
2022-08-25T07:13:17.700Z,27.99
2022-08-25T07:15:46.027Z,28.13
2022-08-25T07:18:14.423Z,28.11
2022-08-25T07:20:43.169Z,28.30
2022-08-25T07:23:11.214Z,28.53
2022-08-25T07:25:39.290Z,28.39
2022-08-25T07:28:07.229Z,28.49
2022-08-25T07:30:37.399Z,28.50
2022-08-25T07:33:06.780Z,28.66
2022-08-25T07:35:37.832Z,28.48
2022-08-25T07:38:10.159Z,28.37
2022-08-25T07:40:42.989Z,28.55
2022-08-25T07:43:11.311Z,28.66
2022-08-25T07:45:46.862Z,28.91
2022-08-25T07:48:20.010Z,29.08
2022-08-25T07:50:49.603Z,28.95
2022-08-25T07:53:17.977Z,29.09
2022-08-25T07:55:47.182Z,29.14
2022-08-25T07:58:15.931Z,29.11
2022-08-25T08:00:50.747Z,29.30
2022-08-25T08:03:42.305Z,29.32
2022-08-25T08:06:12.290Z,29.43
2022-08-25T08:08:54.693Z,29.48
2022-08-25T08:11:34.087Z,29.25
2022-08-25T08:14:09.723Z,29.36
2022-08-25T08:16:39.099Z,29.38
2022-08-25T08:19:12.908Z,29.29
2022-08-25T08:21:57.155Z,29.44
2022-08-25T08:24:54.308Z,29.56
2022-08-25T08:27:25.042Z,29.63
2022-08-25T08:29:53.867Z,29.57
2022-08-25T08:32:23.137Z,29.67
2022-08-25T08:34:59.564Z,29.77
2022-08-25T08:37:28.261Z,29.79
2022-08-25T08:39:56.600Z,29.77
2022-08-25T08:42:46.716Z,29.94
2022-08-25T08:45:40.433Z,30.06
2022-08-25T08:48:33.592Z,30.13
2022-08-25T08:51:12.981Z,30.13
2022-08-25T08:54:15.199Z,30.28
2022-08-25T08:56:48.131Z,30.40
2022-08-25T08:59:21.893Z,30.38
2022-08-25T09:02:00.721Z,30.37
2022-08-25T09:04:48.763Z,30.46
2022-08-25T09:07:26.409Z,30.41
2022-08-25T09:09:54.548Z,30.49
2022-08-25T09:12:48.292Z,30.58
2022-08-25T09:16:02.830Z,30.65
2022-08-25T09:18:57.741Z,30.63
2022-08-25T09:21:40.372Z,30.75
2022-08-25T09:24:26.668Z,30.78
2022-08-25T09:27:47.331Z,30.92
2022-08-25T09:30:52.484Z,30.93
2022-08-25T09:33:23.332Z,31.07
2022-08-25T09:35:53.883Z,31.18
2022-08-25T09:38:22.320Z,31.16
2022-08-25T09:40:54.732Z,31.26
2022-08-25T09:43:32.306Z,31.30
2022-08-25T09:46:09.297Z,31.30
2022-08-25T09:48:57.837Z,31.45
2022-08-25T09:51:42.839Z,31.48
2022-08-25T09:54:14.465Z,31.43
2022-08-25T09:57:09.296Z,31.36
2022-08-25T09:59:38.355Z,31.49
2022-08-25T10:02:28.801Z,31.64
2022-08-25T10:04:57.439Z,31.78
2022-08-25T10:07:30.333Z,31.88
2022-08-25T10:10:17.915Z,32.05
2022-08-25T10:12:51.273Z,31.95
2022-08-25T10:15:29.632Z,31.96
2022-08-25T10:18:25.937Z,32.06
2022-08-25T10:21:17.660Z,32.22
2022-08-25T10:23:56.264Z,32.25
2022-08-25T10:26:46.867Z,32.28
2022-08-25T10:29:29.019Z,32.11
2022-08-25T10:32:19.142Z,32.21
2022-08-25T10:39:02.385Z,32.22
2022-08-25T10:41:33.960Z,32.38
2022-08-25T10:44:40.050Z,32.47
2022-08-25T10:47:26.410Z,32.53
2022-08-25T10:50:05.766Z,32.51
2022-08-25T10:52:49.014Z,32.51
2022-08-25T10:55:40.359Z,32.55
2022-08-25T10:58:54.516Z,32.66
2022-08-25T11:01:42.900Z,32.83
2022-08-25T11:04:47.202Z,32.97
2022-08-25T11:07:35.820Z,33.06
2022-08-25T11:10:47.925Z,33.15
2022-08-25T11:13:22.839Z,33.34
2022-08-25T11:16:18.760Z,33.40
2022-08-25T11:18:55.525Z,33.50
2022-08-25T11:22:03.173Z,33.61
2022-08-25T11:24:42.012Z,33.51
2022-08-25T11:27:24.403Z,33.56
2022-08-25T11:30:14.803Z,33.67
2022-08-25T11:32:48.082Z,33.75
2022-08-25T11:35:29.876Z,33.69
2022-08-25T11:38:18.858Z,33.39
2022-08-25T11:41:29.127Z,33.53
2022-08-25T11:44:13.516Z,33.70
2022-08-25T11:46:53.064Z,33.66
2022-08-25T11:49:54.857Z,33.81
2022-08-25T11:52:34.739Z,34.11
2022-08-25T11:55:07.578Z,34.26
2022-08-25T11:57:39.545Z,34.31
2022-08-25T12:04:15.162Z,34.39
2022-08-25T12:07:17.981Z,34.49
2022-08-25T12:09:53.944Z,34.51
2022-08-25T12:12:51.019Z,34.55
2022-08-25T12:15:27.632Z,34.27
2022-08-25T12:18:17.023Z,34.58
2022-08-25T12:20:59.005Z,34.17
2022-08-25T12:23:39.912Z,34.13
2022-08-25T12:26:28.110Z,34.36
2022-08-25T12:29:23.311Z,34.37
2022-08-25T12:31:57.388Z,34.56
2022-08-25T12:35:11.619Z,34.61
2022-08-25T12:38:01.588Z,34.87
2022-08-25T12:40:33.774Z,34.80
2022-08-25T12:43:11.701Z,34.65
2022-08-25T12:45:44.245Z,34.56
2022-08-25T12:48:28.646Z,35.01
2022-08-25T12:51:10.693Z,35.15
2022-08-25T12:54:22.536Z,34.91
2022-08-25T12:56:57.316Z,35.08
2022-08-25T12:59:37.703Z,35.30
2022-08-25T13:02:51.915Z,35.35
2022-08-25T13:05:25.964Z,35.23
2022-08-25T13:07:59.135Z,34.79
2022-08-25T13:10:52.679Z,35.31
2022-08-25T13:13:59.332Z,35.41
2022-08-25T13:16:30.792Z,35.21
2022-08-25T13:19:01.986Z,35.20
2022-08-25T13:21:37.617Z,35.33
2022-08-25T13:24:09.919Z,35.53
2022-08-25T13:26:48.565Z,35.75
2022-08-25T13:29:23.724Z,35.76
2022-08-25T13:31:58.275Z,35.33
2022-08-25T13:34:34.851Z,35.24
2022-08-25T13:37:32.524Z,35.33
2022-08-25T13:40:24.788Z,35.30
2022-08-25T13:43:02.792Z,35.45
2022-08-25T13:45:41.079Z,35.28
2022-08-25T13:48:22.362Z,35.27
2022-08-25T13:50:54.708Z,35.28
2022-08-25T13:53:31.724Z,35.52
2022-08-25T13:56:05.684Z,35.60
2022-08-25T13:58:44.667Z,35.63
2022-08-25T14:01:47.756Z,35.66
2022-08-25T14:04:33.407Z,35.83
2022-08-25T14:07:21.685Z,35.88
2022-08-25T14:10:01.798Z,35.79
2022-08-25T14:12:49.681Z,35.63
2022-08-25T14:15:20.444Z,35.87
2022-08-25T14:18:27.052Z,35.14
2022-08-25T14:20:57.780Z,35.23
2022-08-25T14:23:29.077Z,35.56
2022-08-25T14:25:58.360Z,35.81
2022-08-25T14:28:29.542Z,35.96
2022-08-25T14:31:01.480Z,35.95
2022-08-25T14:33:35.358Z,35.67
2022-08-25T14:36:05.480Z,35.72
2022-08-25T14:38:35.470Z,35.44
2022-08-25T14:41:03.562Z,35.38
2022-08-25T14:43:32.411Z,35.18
2022-08-25T14:46:19.905Z,34.89
2022-08-25T14:48:54.522Z,35.00
2022-08-25T14:51:24.874Z,35.15
2022-08-25T14:53:59.808Z,35.02
2022-08-25T14:56:29.346Z,35.25
2022-08-25T14:58:57.631Z,35.13
2022-08-25T15:01:30.034Z,34.81
2022-08-25T15:04:23.527Z,34.50
2022-08-25T15:06:59.400Z,34.47
2022-08-25T15:09:33.410Z,34.29
2022-08-25T15:12:01.768Z,34.26
2022-08-25T15:14:33.315Z,34.11
2022-08-25T15:17:02.442Z,34.04
2022-08-25T15:19:30.575Z,33.92
2022-08-25T15:21:59.357Z,33.84
2022-08-25T15:24:28.902Z,33.89
2022-08-25T15:27:00.346Z,33.91
2022-08-25T15:29:30.905Z,33.75
2022-08-25T15:32:02.143Z,33.83
2022-08-25T15:34:30.954Z,33.80
2022-08-25T15:37:08.103Z,33.72
2022-08-25T15:39:37.335Z,33.60
2022-08-25T15:42:06.455Z,33.66
2022-08-25T15:44:41.845Z,33.46
2022-08-25T15:47:21.672Z,33.34
2022-08-25T15:50:06.563Z,33.42
2022-08-25T15:52:46.439Z,33.46
2022-08-25T15:55:17.905Z,33.48
2022-08-25T15:57:49.773Z,33.32
2022-08-25T16:00:18.984Z,33.33
2022-08-25T16:02:53.357Z,33.40
2022-08-25T16:05:25.930Z,33.29
2022-08-25T16:07:54.484Z,33.07
2022-08-25T16:10:22.510Z,33.18
2022-08-25T16:12:50.655Z,33.16
2022-08-25T16:15:23.949Z,33.17
2022-08-25T16:17:58.723Z,33.11
2022-08-25T16:20:28.430Z,33.10
2022-08-25T16:22:57.107Z,33.11
2022-08-25T16:25:25.731Z,33.00
2022-08-25T16:27:53.869Z,33.02
2022-08-25T16:30:21.996Z,32.91
2022-08-25T16:32:51.535Z,32.85
2022-08-25T16:35:22.907Z,32.89
2022-08-25T16:37:53.217Z,32.86
2022-08-25T16:40:24.733Z,32.88
2022-08-25T16:42:55.199Z,32.74
2022-08-25T16:45:23.464Z,32.68
2022-08-25T16:47:51.780Z,32.67
2022-08-25T16:50:19.817Z,32.60
2022-08-25T16:53:07.916Z,32.49
2022-08-25T16:55:39.874Z,32.33
2022-08-25T16:58:13.365Z,32.40
2022-08-25T17:00:44.010Z,32.44
2022-08-25T17:03:13.326Z,32.35
2022-08-25T17:05:43.036Z,32.42
2022-08-25T17:08:30.587Z,32.43
2022-08-25T17:11:18.020Z,32.43
2022-08-25T17:13:50.737Z,32.43
2022-08-25T17:16:21.731Z,32.41
2022-08-25T17:18:49.786Z,32.52
2022-08-25T17:21:24.263Z,32.43
2022-08-25T17:23:54.276Z,32.51
2022-08-25T17:26:27.853Z,32.42
2022-08-25T17:28:59.380Z,32.32
2022-08-25T17:31:31.181Z,32.29
2022-08-25T17:33:59.543Z,32.24
2022-08-25T17:36:27.713Z,32.16
2022-08-25T17:38:56.813Z,32.17
2022-08-25T17:41:26.124Z,32.13
2022-08-25T17:43:54.194Z,32.17
2022-08-25T17:46:22.082Z,32.04
2022-08-25T17:48:52.103Z,32.02
2022-08-25T17:51:20.660Z,31.98
2022-08-25T17:53:49.606Z,31.96
2022-08-25T17:56:19.646Z,31.93
2022-08-25T17:58:48.681Z,31.82
2022-08-25T18:01:23.437Z,31.81
2022-08-25T18:03:52.186Z,31.76
2022-08-25T18:06:23.946Z,31.64
2022-08-25T18:08:58.707Z,31.69
2022-08-25T18:11:28.936Z,31.61
2022-08-25T18:14:00.260Z,31.63
2022-08-25T18:16:28.922Z,31.57
2022-08-25T18:18:57.186Z,31.50
2022-08-25T18:21:25.511Z,31.57
2022-08-25T18:23:58.988Z,31.52
2022-08-25T18:26:27.601Z,31.43
2022-08-25T18:28:55.909Z,31.54
2022-08-25T18:31:25.491Z,31.53
2022-08-25T18:33:53.471Z,31.48
2022-08-25T18:36:21.439Z,31.48
2022-08-25T18:39:09.573Z,31.44
2022-08-25T18:41:40.919Z,31.46
2022-08-25T18:44:11.108Z,31.53
2022-08-25T18:46:40.054Z,31.54
2022-08-25T18:49:09.489Z,31.49
2022-08-25T18:51:41.949Z,31.53
2022-08-25T18:54:23.343Z,31.32
2022-08-25T18:56:53.957Z,31.31
2022-08-25T18:59:23.818Z,31.24
2022-08-25T19:01:54.289Z,31.15
2022-08-25T19:04:28.434Z,31.19
2022-08-25T19:07:01.665Z,31.01
2022-08-25T19:09:30.692Z,30.90
2022-08-25T19:11:59.928Z,31.00
2022-08-25T19:14:28.650Z,31.03
2022-08-25T19:16:58.136Z,31.09
2022-08-25T19:19:26.582Z,30.90
2022-08-25T19:21:55.492Z,30.97
2022-08-25T19:24:26.516Z,30.94
2022-08-25T19:26:54.945Z,30.90
2022-08-25T19:29:24.257Z,30.74
2022-08-25T19:31:52.459Z,30.59
2022-08-25T19:34:28.396Z,30.48
2022-08-25T19:37:00.422Z,30.52
2022-08-25T19:39:30.615Z,30.63
2022-08-25T19:41:58.970Z,30.45
2022-08-25T19:44:28.170Z,30.44
2022-08-25T19:46:56.690Z,30.44
2022-08-25T19:49:31.685Z,30.38
2022-08-25T19:52:06.944Z,30.21
2022-08-25T19:54:44.480Z,30.14
2022-08-25T19:57:13.500Z,30.14
2022-08-25T19:59:56.156Z,30.07
2022-08-25T20:02:29.675Z,29.90
2022-08-25T20:04:59.933Z,29.67
2022-08-25T20:07:30.734Z,29.52
2022-08-25T20:10:00.251Z,29.32
2022-08-25T20:12:29.362Z,29.23
2022-08-25T20:14:57.946Z,29.14
2022-08-25T20:17:28.266Z,29.11
2022-08-25T20:20:00.179Z,29.07
2022-08-25T20:22:31.112Z,28.88
2022-08-25T20:25:13.846Z,28.82
2022-08-25T20:27:48.366Z,28.79
2022-08-25T20:30:23.263Z,28.73
2022-08-25T20:32:57.665Z,28.73
2022-08-25T20:35:28.568Z,28.66
2022-08-25T20:37:59.779Z,28.67
2022-08-25T20:40:31.882Z,28.66
2022-08-25T20:43:03.281Z,28.64
2022-08-25T20:45:33.323Z,28.60
2022-08-25T20:48:01.336Z,28.60
2022-08-25T20:50:30.053Z,28.56
2022-08-25T20:52:59.392Z,28.53
2022-08-25T20:55:29.033Z,28.48
2022-08-25T20:57:56.926Z,28.43
2022-08-25T21:00:25.137Z,28.37
2022-08-25T21:02:53.463Z,28.39
2022-08-25T21:05:21.647Z,28.37
2022-08-25T21:07:49.586Z,28.30
2022-08-25T21:10:20.438Z,28.28
2022-08-25T21:12:53.457Z,28.22
2022-08-25T21:15:21.561Z,28.07
2022-08-25T21:17:53.209Z,28.00
2022-08-25T21:20:24.265Z,27.99
2022-08-25T21:22:53.470Z,27.99
2022-08-25T21:25:21.937Z,27.90
2022-08-25T21:27:49.841Z,27.86
2022-08-25T21:30:18.251Z,27.83
2022-08-25T21:32:53.812Z,27.74
2022-08-25T21:35:23.790Z,27.71
2022-08-25T21:37:53.872Z,27.73
2022-08-25T21:40:23.180Z,27.68
2022-08-25T21:42:52.534Z,27.73
2022-08-25T21:45:21.791Z,27.75
2022-08-25T21:47:50.022Z,27.67
2022-08-25T21:50:20.166Z,27.66
2022-08-25T21:53:04.045Z,27.56
2022-08-25T21:55:38.283Z,27.51
2022-08-25T21:58:10.877Z,27.54
2022-08-25T22:00:38.690Z,27.43
2022-08-25T22:03:07.387Z,27.47
2022-08-25T22:05:37.421Z,27.36
2022-08-25T22:08:05.553Z,27.43
2022-08-25T22:10:33.433Z,27.45
2022-08-25T22:13:01.790Z,27.33
2022-08-25T22:15:30.579Z,27.32
2022-08-25T22:17:58.369Z,27.34
2022-08-25T22:20:26.182Z,27.22
2022-08-25T22:22:56.788Z,27.14
2022-08-25T22:25:25.072Z,27.12
2022-08-25T22:27:57.072Z,27.07
2022-08-25T22:30:25.944Z,27.07
2022-08-25T22:32:58.830Z,27.05
2022-08-25T22:35:27.842Z,26.93
2022-08-25T22:37:55.720Z,27.02
2022-08-25T22:40:24.031Z,27.03
2022-08-25T22:43:06.289Z,27.02
2022-08-25T22:45:39.301Z,26.99
2022-08-25T22:48:07.303Z,26.96
2022-08-25T22:50:36.722Z,26.96
2022-08-25T22:53:04.653Z,26.99
2022-08-25T22:55:32.977Z,27.02
2022-08-25T22:58:56.814Z,27.06
2022-08-25T23:01:24.654Z,27.04
2022-08-25T23:03:52.914Z,27.06
2022-08-25T23:06:24.584Z,27.07
2022-08-25T23:08:54.825Z,27.03
2022-08-25T23:11:25.048Z,27.03
2022-08-25T23:13:58.175Z,26.99
2022-08-25T23:16:28.695Z,26.97
2022-08-25T23:18:56.511Z,26.73
2022-08-25T23:21:43.303Z,26.89
2022-08-25T23:24:14.558Z,26.95
2022-08-25T23:27:03.853Z,26.96
2022-08-25T23:29:34.359Z,26.99
2022-08-25T23:32:02.658Z,27.05
2022-08-25T23:34:30.578Z,26.96
2022-08-25T23:37:01.790Z,26.86
2022-08-25T23:39:29.841Z,26.75
2022-08-25T23:41:58.768Z,26.80
2022-08-25T23:44:28.207Z,26.88
2022-08-25T23:46:56.022Z,26.82
2022-08-25T23:49:25.812Z,26.81
2022-08-25T23:51:55.726Z,26.82
2022-08-25T23:54:31.002Z,26.87
2022-08-25T23:56:59.768Z,26.79
2022-08-25T23:59:27.715Z,26.87
